createdAt,value
2019-05-22T00:00:40.199Z,15.97
2019-05-22T00:01:40.225Z,15.98
2019-05-22T00:02:40.187Z,15.91
2019-05-22T00:03:40.165Z,16.00
2019-05-22T00:04:40.154Z,16.01
2019-05-22T00:05:40.144Z,15.88
2019-05-22T00:06:40.133Z,15.88
2019-05-22T00:07:40.118Z,15.86
2019-05-22T00:08:40.102Z,15.97
2019-05-22T00:09:40.152Z,15.88
2019-05-22T00:10:40.082Z,15.90
2019-05-22T00:11:40.074Z,15.90
2019-05-22T00:12:46.498Z,15.90
2019-05-22T00:13:41.047Z,15.91
2019-05-22T00:14:40.049Z,15.88
2019-05-22T00:15:40.041Z,15.83
2019-05-22T00:16:40.023Z,15.86
2019-05-22T00:17:40.006Z,15.91
2019-05-22T00:18:40.061Z,15.77
2019-05-22T00:19:39.983Z,15.86
2019-05-22T00:20:39.976Z,15.94
2019-05-22T00:21:39.959Z,15.91
2019-05-22T00:22:39.948Z,15.80
2019-05-22T00:23:39.939Z,15.84
2019-05-22T00:24:39.941Z,15.84
2019-05-22T00:25:39.907Z,15.77
2019-05-22T00:26:39.906Z,15.82
2019-05-22T00:27:39.891Z,15.79
2019-05-22T00:28:39.879Z,15.79
2019-05-22T00:29:39.865Z,15.83
2019-05-22T00:30:39.857Z,15.68
2019-05-22T00:31:39.859Z,15.68
2019-05-22T00:32:39.843Z,15.70
2019-05-22T00:33:39.817Z,15.68
2019-05-22T00:34:39.807Z,15.55
2019-05-22T00:35:39.802Z,15.59
2019-05-22T00:36:39.790Z,15.51
2019-05-22T00:37:39.786Z,15.54
2019-05-22T00:38:39.764Z,15.43
2019-05-22T00:39:39.754Z,15.46
2019-05-22T00:40:39.738Z,15.44
2019-05-22T00:41:39.729Z,15.39
2019-05-22T00:42:39.745Z,15.36
2019-05-22T00:43:39.712Z,15.36
2019-05-22T00:44:39.730Z,15.25
2019-05-22T00:45:39.687Z,15.25
2019-05-22T00:46:39.678Z,15.29
2019-05-22T00:47:39.662Z,15.31
2019-05-22T00:48:39.654Z,15.28
2019-05-22T00:49:39.648Z,15.27
2019-05-22T00:50:39.644Z,15.31
2019-05-22T00:51:39.617Z,15.21
2019-05-22T00:52:39.609Z,15.17
2019-05-22T00:53:39.805Z,15.19
2019-05-22T00:54:39.581Z,15.15
2019-05-22T00:55:39.570Z,15.22
2019-05-22T00:56:39.557Z,15.22
2019-05-22T00:57:39.547Z,15.27
2019-05-22T00:58:39.564Z,15.21
2019-05-22T00:59:39.538Z,15.21
2019-05-22T01:00:39.534Z,15.22
2019-05-22T01:01:39.510Z,15.17
2019-05-22T01:02:39.501Z,15.15
2019-05-22T01:03:39.488Z,15.21
2019-05-22T01:04:39.485Z,15.22
2019-05-22T01:05:39.462Z,15.19
2019-05-22T01:06:39.452Z,15.15
2019-05-22T01:07:39.447Z,15.09
2019-05-22T01:08:39.451Z,15.06
2019-05-22T01:09:39.418Z,15.15
2019-05-22T01:10:39.410Z,15.17
2019-05-22T01:11:39.400Z,15.17
2019-05-22T01:12:39.386Z,15.15
2019-05-22T01:13:39.385Z,15.07
2019-05-22T01:14:43.019Z,15.04
2019-05-22T01:15:39.353Z,15.14
2019-05-22T01:16:39.340Z,15.17
2019-05-22T01:17:39.323Z,15.11
2019-05-22T01:18:39.324Z,15.09
2019-05-22T01:19:39.332Z,15.10
2019-05-22T01:20:39.289Z,15.04
2019-05-22T01:21:39.286Z,15.03
2019-05-22T01:22:39.274Z,15.15
2019-05-22T01:23:39.291Z,15.02
2019-05-22T01:24:39.251Z,15.03
2019-05-22T01:25:39.254Z,15.06
2019-05-22T01:26:39.239Z,15.00
2019-05-22T01:27:39.216Z,14.99
2019-05-22T01:28:39.210Z,15.02
2019-05-22T01:29:39.198Z,14.99
2019-05-22T01:30:39.210Z,15.02
2019-05-22T01:31:39.179Z,15.04
2019-05-22T01:32:39.163Z,14.96
2019-05-22T01:33:39.148Z,15.00
2019-05-22T01:34:39.137Z,14.91
2019-05-22T01:35:39.131Z,14.97
2019-05-22T01:36:39.151Z,14.97
2019-05-22T01:37:39.110Z,15.02
2019-05-22T01:38:39.101Z,14.91
2019-05-22T01:39:39.092Z,14.89
2019-05-22T01:40:39.086Z,14.84
2019-05-22T01:41:39.077Z,14.86
2019-05-22T01:42:39.110Z,14.89
2019-05-22T01:43:39.041Z,14.86
2019-05-22T01:44:39.032Z,14.84
2019-05-22T01:45:39.020Z,14.82
2019-05-22T01:46:39.014Z,14.82
2019-05-22T01:47:39.015Z,14.82
2019-05-22T01:48:39.006Z,14.84
2019-05-22T01:49:38.994Z,14.86
2019-05-22T01:50:38.972Z,14.82
2019-05-22T01:51:38.966Z,14.82
2019-05-22T01:52:38.955Z,14.81
2019-05-22T01:53:38.942Z,14.79
2019-05-22T01:54:38.931Z,14.70
2019-05-22T01:55:38.911Z,14.72
2019-05-22T01:56:38.973Z,14.72
2019-05-22T01:57:38.909Z,14.78
2019-05-22T01:58:38.894Z,14.78
2019-05-22T01:59:38.876Z,14.73
2019-05-22T02:00:38.926Z,14.73
2019-05-22T02:01:38.854Z,14.78
2019-05-22T02:02:38.855Z,14.78
2019-05-22T02:03:38.828Z,14.77
2019-05-22T02:04:38.817Z,14.73
2019-05-22T02:05:38.828Z,14.77
2019-05-22T02:06:38.800Z,14.77
2019-05-22T02:07:38.790Z,14.78
2019-05-22T02:08:38.783Z,14.70
2019-05-22T02:09:38.765Z,14.69
2019-05-22T02:10:38.759Z,14.73
2019-05-22T02:11:38.757Z,14.78
2019-05-22T02:12:38.769Z,14.78
2019-05-22T02:13:38.856Z,14.69
2019-05-22T02:14:38.725Z,14.65
2019-05-22T02:15:38.712Z,14.69
2019-05-22T02:16:55.108Z,14.69
2019-05-22T02:17:39.685Z,14.73
2019-05-22T02:18:38.673Z,14.60
2019-05-22T02:19:38.750Z,14.66
2019-05-22T02:20:38.666Z,14.68
2019-05-22T02:21:38.639Z,14.55
2019-05-22T02:22:38.637Z,14.62
2019-05-22T02:23:38.627Z,14.55
2019-05-22T02:24:38.609Z,14.63
2019-05-22T02:25:38.600Z,14.66
2019-05-22T02:26:38.594Z,14.63
2019-05-22T02:27:38.584Z,14.63
2019-05-22T02:28:38.563Z,14.54
2019-05-22T02:29:38.582Z,14.55
2019-05-22T02:30:38.540Z,14.50
2019-05-22T02:31:38.544Z,14.53
2019-05-22T02:32:38.534Z,14.50
2019-05-22T02:33:38.539Z,14.53
2019-05-22T02:34:38.503Z,14.50
2019-05-22T02:35:38.511Z,14.54
2019-05-22T02:36:38.499Z,14.51
2019-05-22T02:37:38.479Z,14.43
2019-05-22T02:38:38.458Z,14.47
2019-05-22T02:39:38.448Z,14.45
2019-05-22T02:40:38.442Z,14.45
2019-05-22T02:41:38.478Z,14.51
2019-05-22T02:42:38.419Z,14.45
2019-05-22T02:43:38.398Z,14.58
2019-05-22T02:44:38.414Z,14.54
2019-05-22T02:45:38.382Z,14.51
2019-05-22T02:46:38.370Z,14.50
2019-05-22T02:47:38.391Z,14.45
2019-05-22T02:48:42.135Z,14.37
2019-05-22T02:49:38.334Z,14.36
2019-05-22T02:50:38.323Z,14.43
2019-05-22T02:51:38.318Z,14.45
2019-05-22T02:52:38.320Z,14.41
2019-05-22T02:53:38.296Z,14.41
2019-05-22T02:54:38.302Z,14.33
2019-05-22T02:55:38.280Z,14.30
2019-05-22T02:56:38.261Z,14.43
2019-05-22T02:57:38.255Z,14.32
2019-05-22T02:58:38.304Z,14.37
2019-05-22T02:59:38.225Z,14.36
2019-05-22T03:00:38.212Z,14.30
2019-05-22T03:01:38.214Z,14.36
2019-05-22T03:02:38.192Z,14.36
2019-05-22T03:03:38.181Z,14.30
2019-05-22T03:04:38.186Z,14.36
2019-05-22T03:05:38.165Z,14.40
2019-05-22T03:06:38.153Z,14.25
2019-05-22T03:07:38.150Z,14.30
2019-05-22T03:08:38.130Z,14.30
2019-05-22T03:09:38.157Z,14.32
2019-05-22T03:10:38.109Z,14.28
2019-05-22T03:11:38.154Z,14.25
2019-05-22T03:12:38.107Z,14.26
2019-05-22T03:13:38.074Z,14.26
2019-05-22T03:14:38.060Z,14.22
2019-05-22T03:15:38.120Z,14.26
2019-05-22T03:16:38.052Z,14.18
2019-05-22T03:17:38.031Z,14.22
2019-05-22T03:18:38.023Z,14.22
2019-05-22T03:19:38.038Z,14.17
2019-05-22T03:20:38.011Z,14.22
2019-05-22T03:21:37.989Z,14.25
2019-05-22T03:22:37.980Z,14.22
2019-05-22T03:23:38.014Z,14.11
2019-05-22T03:24:37.977Z,14.18
2019-05-22T03:25:37.960Z,14.18
2019-05-22T03:26:37.934Z,14.25
2019-05-22T03:27:37.925Z,14.15
2019-05-22T03:28:37.912Z,14.20
2019-05-22T03:29:37.909Z,14.18
2019-05-22T03:30:37.920Z,14.14
2019-05-22T03:31:37.873Z,14.11
2019-05-22T03:32:43.392Z,14.05
2019-05-22T03:33:38.852Z,14.11
2019-05-22T03:34:37.840Z,14.11
2019-05-22T03:35:37.849Z,14.07
2019-05-22T03:36:37.860Z,14.12
2019-05-22T03:37:37.840Z,14.07
2019-05-22T03:38:37.798Z,13.99
2019-05-22T03:39:37.793Z,14.04
2019-05-22T03:40:37.809Z,13.96
2019-05-22T03:41:37.765Z,14.04
2019-05-22T03:42:37.763Z,14.00
2019-05-22T03:43:37.744Z,14.00
2019-05-22T03:44:37.732Z,14.00
2019-05-22T03:45:37.727Z,13.99
2019-05-22T03:46:37.714Z,13.99
2019-05-22T03:47:37.736Z,13.96
2019-05-22T03:48:37.692Z,13.96
2019-05-22T03:49:37.689Z,13.93
2019-05-22T03:50:37.677Z,14.04
2019-05-22T03:51:37.665Z,13.99
2019-05-22T03:52:37.658Z,13.89
2019-05-22T03:53:37.640Z,14.00
2019-05-22T03:54:37.627Z,14.00
2019-05-22T03:55:37.613Z,13.97
2019-05-22T03:56:37.630Z,13.97
2019-05-22T03:57:37.600Z,14.00
2019-05-22T03:58:37.585Z,14.07
2019-05-22T03:59:37.574Z,13.97
2019-05-22T04:00:42.961Z,13.95
2019-05-22T04:01:38.567Z,14.03
2019-05-22T04:02:37.536Z,13.95
2019-05-22T04:03:37.540Z,13.95
2019-05-22T04:04:37.554Z,13.90
2019-05-22T04:05:37.506Z,13.97
2019-05-22T04:06:37.491Z,13.85
2019-05-22T04:07:37.486Z,14.00
2019-05-22T04:08:37.471Z,13.95
2019-05-22T04:09:37.472Z,13.89
2019-05-22T04:10:40.993Z,13.97
2019-05-22T04:11:37.438Z,13.96
2019-05-22T04:12:37.434Z,13.96
2019-05-22T04:13:37.420Z,13.87
2019-05-22T04:14:37.420Z,13.95
2019-05-22T04:15:37.426Z,13.93
2019-05-22T04:16:37.385Z,13.90
2019-05-22T04:17:37.372Z,13.78
2019-05-22T04:18:37.479Z,13.92
2019-05-22T04:19:49.347Z,13.79
2019-05-22T04:20:38.401Z,13.85
2019-05-22T04:21:37.336Z,13.78
2019-05-22T04:22:37.321Z,13.75
2019-05-22T04:23:37.316Z,13.83
2019-05-22T04:24:37.299Z,13.74
2019-05-22T04:25:37.307Z,13.71
2019-05-22T04:26:37.286Z,13.72
2019-05-22T04:27:37.290Z,13.71
2019-05-22T04:28:37.254Z,13.59
2019-05-22T04:29:37.242Z,13.74
2019-05-22T04:30:37.238Z,13.63
2019-05-22T04:31:37.249Z,13.71
2019-05-22T04:32:37.215Z,13.54
2019-05-22T04:33:37.230Z,13.60
2019-05-22T04:34:37.188Z,13.54
2019-05-22T04:35:37.183Z,13.54
2019-05-22T04:36:37.167Z,13.53
2019-05-22T04:37:37.178Z,13.53
2019-05-22T04:38:37.155Z,13.50
2019-05-22T04:39:37.134Z,13.49
2019-05-22T04:40:37.122Z,13.47
2019-05-22T04:41:37.117Z,13.49
2019-05-22T04:42:37.115Z,13.49
2019-05-22T04:43:37.091Z,13.44
2019-05-22T04:44:37.082Z,13.49
2019-05-22T04:45:37.068Z,13.37
2019-05-22T04:46:37.080Z,13.37
2019-05-22T04:47:37.052Z,13.37
2019-05-22T04:48:37.035Z,13.28
2019-05-22T04:49:37.024Z,13.30
2019-05-22T04:50:37.019Z,13.38
2019-05-22T04:51:37.003Z,13.31
2019-05-22T04:52:37.000Z,13.37
2019-05-22T04:53:36.990Z,13.25
2019-05-22T04:54:36.966Z,13.31
2019-05-22T04:55:36.961Z,13.28
2019-05-22T04:56:36.950Z,13.27
2019-05-22T04:57:36.938Z,13.20
2019-05-22T04:58:36.935Z,13.19
2019-05-22T04:59:37.043Z,13.12
2019-05-22T05:00:36.919Z,13.27
2019-05-22T05:01:36.899Z,13.15
2019-05-22T05:02:36.887Z,13.15
2019-05-22T05:03:36.908Z,13.13
2019-05-22T05:04:36.857Z,13.15
2019-05-22T05:05:36.851Z,13.18
2019-05-22T05:06:36.834Z,13.11
2019-05-22T05:07:36.826Z,13.09
2019-05-22T05:08:36.820Z,13.08
2019-05-22T05:09:36.844Z,13.20
2019-05-22T05:10:36.819Z,13.13
2019-05-22T05:11:36.779Z,13.20
2019-05-22T05:12:36.779Z,13.18
2019-05-22T05:13:36.761Z,13.08
2019-05-22T05:14:36.753Z,13.08
2019-05-22T05:15:37.377Z,13.00
2019-05-22T05:16:36.738Z,13.03
2019-05-22T05:17:36.716Z,13.03
2019-05-22T05:18:36.708Z,13.03
2019-05-22T05:19:36.711Z,13.05
2019-05-22T05:20:36.718Z,13.03
2019-05-22T05:21:36.673Z,12.98
2019-05-22T05:22:36.681Z,13.03
2019-05-22T05:23:36.654Z,13.00
2019-05-22T05:24:36.641Z,13.08
2019-05-22T05:25:36.633Z,12.97
2019-05-22T05:26:36.615Z,12.90
2019-05-22T05:27:36.609Z,12.95
2019-05-22T05:28:36.620Z,12.95
2019-05-22T05:29:36.585Z,12.87
2019-05-22T05:30:36.578Z,12.87
2019-05-22T05:31:36.562Z,12.90
2019-05-22T05:32:36.553Z,12.86
2019-05-22T05:33:36.541Z,12.91
2019-05-22T05:34:36.569Z,12.95
2019-05-22T05:35:36.524Z,12.90
2019-05-22T05:36:36.517Z,12.85
2019-05-22T05:37:36.499Z,12.85
2019-05-22T05:38:36.497Z,12.97
2019-05-22T05:39:36.494Z,12.98
2019-05-22T05:40:36.482Z,12.86
2019-05-22T05:41:36.450Z,12.87
2019-05-22T05:42:36.441Z,12.91
2019-05-22T05:43:36.433Z,12.93
2019-05-22T05:44:36.459Z,12.90
2019-05-22T05:45:36.417Z,12.86
2019-05-22T05:46:36.398Z,12.85
2019-05-22T05:47:36.389Z,12.90
2019-05-22T05:48:36.377Z,12.87
2019-05-22T05:49:36.358Z,12.86
2019-05-22T05:50:39.925Z,12.91
2019-05-22T05:51:36.351Z,12.90
2019-05-22T05:52:36.332Z,12.85
2019-05-22T05:53:36.321Z,12.90
2019-05-22T05:54:36.313Z,12.86
2019-05-22T05:55:36.307Z,12.87
2019-05-22T05:56:36.286Z,12.87
2019-05-22T05:57:36.281Z,12.86
2019-05-22T05:58:36.274Z,12.87
2019-05-22T05:59:36.252Z,12.85
2019-05-22T06:00:36.275Z,12.93
2019-05-22T06:01:36.234Z,12.82
2019-05-22T06:02:36.274Z,12.83
2019-05-22T06:03:36.205Z,12.86
2019-05-22T06:04:36.192Z,12.80
2019-05-22T06:05:36.181Z,13.00
2019-05-22T06:06:36.200Z,12.90
2019-05-22T06:07:36.169Z,12.85
2019-05-22T06:08:36.149Z,12.91
2019-05-22T06:09:36.144Z,12.91
2019-05-22T06:10:36.140Z,12.87
2019-05-22T06:11:36.120Z,12.90
2019-05-22T06:12:36.137Z,12.82
2019-05-22T06:13:36.093Z,12.91
2019-05-22T06:14:36.088Z,12.87
2019-05-22T06:15:46.470Z,12.82
2019-05-22T06:16:37.062Z,12.87
2019-05-22T06:17:36.055Z,12.91
2019-05-22T06:18:36.051Z,12.83
2019-05-22T06:19:36.037Z,12.78
2019-05-22T06:20:36.015Z,12.78
2019-05-22T06:21:36.004Z,12.78
2019-05-22T06:22:35.999Z,12.72
2019-05-22T06:23:35.992Z,12.76
2019-05-22T06:24:35.976Z,12.76
2019-05-22T06:25:35.962Z,12.73
2019-05-22T06:26:35.951Z,12.62
2019-05-22T06:27:35.948Z,12.62
2019-05-22T06:28:35.989Z,12.55
2019-05-22T06:29:35.916Z,12.62
2019-05-22T06:30:35.920Z,12.57
2019-05-22T06:31:35.953Z,12.55
2019-05-22T06:32:35.884Z,12.62
2019-05-22T06:33:35.875Z,12.62
2019-05-22T06:34:35.879Z,12.57
2019-05-22T06:35:35.857Z,12.65
2019-05-22T06:36:35.839Z,12.64
2019-05-22T06:37:35.829Z,12.58
2019-05-22T06:38:35.824Z,12.47
2019-05-22T06:39:35.815Z,12.47
2019-05-22T06:40:35.806Z,12.49
2019-05-22T06:41:35.789Z,12.46
2019-05-22T06:42:35.773Z,12.43
2019-05-22T06:43:35.768Z,12.54
2019-05-22T06:44:35.753Z,12.47
2019-05-22T06:45:35.758Z,12.46
2019-05-22T06:46:35.736Z,12.47
2019-05-22T06:47:35.720Z,12.43
2019-05-22T06:48:35.713Z,12.46
2019-05-22T06:49:35.701Z,12.43
2019-05-22T06:50:35.693Z,12.45
2019-05-22T06:51:35.692Z,12.43
2019-05-22T06:52:35.673Z,12.39
2019-05-22T06:53:35.653Z,12.42
2019-05-22T06:54:35.645Z,12.47
2019-05-22T06:55:35.645Z,12.42
2019-05-22T06:56:35.652Z,12.43
2019-05-22T06:57:35.638Z,12.43
2019-05-22T06:58:35.597Z,12.35
2019-05-22T06:59:35.599Z,12.47
2019-05-22T07:00:35.580Z,12.40
2019-05-22T07:01:35.570Z,12.40
2019-05-22T07:02:35.570Z,12.42
2019-05-22T07:03:35.553Z,12.49
2019-05-22T07:04:35.539Z,12.43
2019-05-22T07:05:35.525Z,12.53
2019-05-22T07:06:35.595Z,12.46
2019-05-22T07:07:35.559Z,12.50
2019-05-22T07:08:35.494Z,12.60
2019-05-22T07:09:35.485Z,12.62
2019-05-22T07:10:35.472Z,12.61
2019-05-22T07:11:35.457Z,12.47
2019-05-22T07:12:35.475Z,12.49
2019-05-22T07:13:35.437Z,12.53
2019-05-22T07:14:35.435Z,12.60
2019-05-22T07:15:35.417Z,12.60
2019-05-22T07:16:35.400Z,12.60
2019-05-22T07:17:35.392Z,12.54
2019-05-22T07:18:35.381Z,12.58
2019-05-22T07:19:35.372Z,12.62
2019-05-22T07:20:35.358Z,12.58
2019-05-22T07:21:35.350Z,12.64
2019-05-22T07:22:35.344Z,12.58
2019-05-22T07:23:35.326Z,12.64
2019-05-22T07:24:35.312Z,12.49
2019-05-22T07:25:35.306Z,12.43
2019-05-22T07:26:35.294Z,12.54
2019-05-22T07:27:35.277Z,12.46
2019-05-22T07:28:35.272Z,12.46
2019-05-22T07:29:35.263Z,12.49
2019-05-22T07:30:35.255Z,12.47
2019-05-22T07:31:35.237Z,12.50
2019-05-22T07:32:35.228Z,12.64
2019-05-22T07:33:35.214Z,12.61
2019-05-22T07:34:35.202Z,12.67
2019-05-22T07:35:56.335Z,12.61
2019-05-22T07:36:36.178Z,12.67
2019-05-22T07:37:35.169Z,12.61
2019-05-22T07:38:35.158Z,12.43
2019-05-22T07:39:35.148Z,12.45
2019-05-22T07:40:35.139Z,12.36
2019-05-22T07:41:35.129Z,12.46
2019-05-22T07:42:35.113Z,12.32
2019-05-22T07:43:35.114Z,12.50
2019-05-22T07:44:35.092Z,12.50
2019-05-22T07:45:35.089Z,12.50
2019-05-22T07:46:35.082Z,12.55
2019-05-22T07:47:35.066Z,12.50
2019-05-22T07:48:35.051Z,12.37
2019-05-22T07:49:35.036Z,12.55
2019-05-22T07:50:35.031Z,12.43
2019-05-22T07:51:50.489Z,12.39
2019-05-22T07:52:36.010Z,12.49
2019-05-22T07:53:34.994Z,12.45
2019-05-22T07:54:34.987Z,12.42
2019-05-22T07:55:34.977Z,12.42
2019-05-22T07:56:34.967Z,12.43
2019-05-22T07:57:34.955Z,12.43
2019-05-22T07:58:34.942Z,12.47
2019-05-22T07:59:34.928Z,12.39
2019-05-22T08:00:34.919Z,12.45
2019-05-22T08:01:34.932Z,12.45
2019-05-22T08:02:34.901Z,12.46
2019-05-22T08:03:34.883Z,12.42
2019-05-22T08:04:34.881Z,12.32
2019-05-22T08:05:34.869Z,12.46
2019-05-22T08:06:34.848Z,12.42
2019-05-22T08:07:34.875Z,12.36
2019-05-22T08:08:34.827Z,12.45
2019-05-22T08:09:34.837Z,12.46
2019-05-22T08:10:34.809Z,12.46
2019-05-22T08:11:34.793Z,12.45
2019-05-22T08:12:34.799Z,12.42
2019-05-22T08:13:34.781Z,12.39
2019-05-22T08:14:34.772Z,12.46
2019-05-22T08:15:34.755Z,12.47
2019-05-22T08:16:34.744Z,12.43
2019-05-22T08:17:34.728Z,12.45
2019-05-22T08:18:34.718Z,12.45
2019-05-22T08:19:34.705Z,12.36
2019-05-22T08:20:34.694Z,12.47
2019-05-22T08:21:34.691Z,12.42
2019-05-22T08:22:34.677Z,12.35
2019-05-22T08:23:34.668Z,12.43
2019-05-22T08:24:34.652Z,12.36
2019-05-22T08:25:34.645Z,12.37
2019-05-22T08:26:51.572Z,12.32
2019-05-22T08:27:35.616Z,12.43
2019-05-22T08:28:34.615Z,12.35
2019-05-22T08:29:34.596Z,12.39
2019-05-22T08:30:34.588Z,12.29
2019-05-22T08:31:34.581Z,12.36
2019-05-22T08:32:34.590Z,12.40
2019-05-22T08:33:34.557Z,12.42
2019-05-22T08:34:34.553Z,12.42
2019-05-22T08:35:34.532Z,12.36
2019-05-22T08:36:38.298Z,12.36
2019-05-22T08:37:34.514Z,12.37
2019-05-22T08:38:34.503Z,12.39
2019-05-22T08:39:34.486Z,12.40
2019-05-22T08:40:34.481Z,12.40
2019-05-22T08:41:34.471Z,12.47
2019-05-22T08:42:35.570Z,12.39
2019-05-22T08:43:56.035Z,12.49
2019-05-22T08:44:35.429Z,12.43
2019-05-22T08:45:34.431Z,12.39
2019-05-22T08:46:34.414Z,12.46
2019-05-22T08:47:34.410Z,12.47
2019-05-22T08:48:34.395Z,12.46
2019-05-22T08:49:34.377Z,12.49
2019-05-22T08:50:34.365Z,12.47
2019-05-22T08:51:34.357Z,12.45
2019-05-22T08:52:34.349Z,12.45
2019-05-22T08:53:46.769Z,12.53
2019-05-22T08:54:35.321Z,12.58
2019-05-22T08:55:34.319Z,12.70
2019-05-22T08:56:34.300Z,12.54
2019-05-22T08:57:34.318Z,12.61
2019-05-22T08:58:34.292Z,12.62
2019-05-22T08:59:34.271Z,12.67
2019-05-22T09:00:34.264Z,12.65
2019-05-22T09:01:34.256Z,12.73
2019-05-22T09:02:34.243Z,12.76
2019-05-22T09:03:34.242Z,12.68
2019-05-22T09:04:34.215Z,12.61
2019-05-22T09:05:34.215Z,12.55
2019-05-22T09:06:34.195Z,12.62
2019-05-22T09:07:34.182Z,12.57
2019-05-22T09:08:34.193Z,12.60
2019-05-22T09:09:34.169Z,12.61
2019-05-22T09:10:34.145Z,12.64
2019-05-22T09:11:34.156Z,12.54
2019-05-22T09:12:34.136Z,12.58
2019-05-22T09:13:34.150Z,12.55
2019-05-22T09:14:34.104Z,12.47
2019-05-22T09:15:34.094Z,12.43
2019-05-22T09:16:34.085Z,12.61
2019-05-22T09:17:34.067Z,12.54
2019-05-22T09:18:34.065Z,12.58
2019-05-22T09:19:34.074Z,12.43
2019-05-22T09:20:48.240Z,12.47
2019-05-22T09:21:35.025Z,12.46
2019-05-22T09:22:40.542Z,12.49
2019-05-22T09:23:35.010Z,12.47
2019-05-22T09:24:34.056Z,12.53
2019-05-22T09:25:33.993Z,12.45
2019-05-22T09:26:33.977Z,12.50
2019-05-22T09:27:33.960Z,12.65
2019-05-22T09:28:33.946Z,12.61
2019-05-22T09:29:33.939Z,12.64
2019-05-22T09:30:33.928Z,12.73
2019-05-22T09:31:33.958Z,12.76
2019-05-22T09:32:33.901Z,12.80
2019-05-22T09:33:33.898Z,12.86
2019-05-22T09:34:33.889Z,12.93
2019-05-22T09:35:33.876Z,12.79
2019-05-22T09:36:33.855Z,12.73
2019-05-22T09:37:33.857Z,12.76
2019-05-22T09:38:33.833Z,12.79
2019-05-22T09:39:33.831Z,12.87
2019-05-22T09:40:33.826Z,12.91
2019-05-22T09:41:33.814Z,12.87
2019-05-22T09:42:33.795Z,12.97
2019-05-22T09:43:33.794Z,13.04
2019-05-22T09:44:33.806Z,12.95
2019-05-22T09:45:33.772Z,13.00
2019-05-22T09:46:33.760Z,12.98
2019-05-22T09:47:33.741Z,13.00
2019-05-22T09:48:33.735Z,13.01
2019-05-22T09:49:33.713Z,13.13
2019-05-22T09:50:33.705Z,13.11
2019-05-22T09:51:33.739Z,13.20
2019-05-22T09:52:33.686Z,13.03
2019-05-22T09:53:33.672Z,13.11
2019-05-22T09:54:33.667Z,13.11
2019-05-22T09:55:33.653Z,13.03
2019-05-22T09:56:33.646Z,13.09
2019-05-22T09:57:33.661Z,12.95
2019-05-22T09:58:33.631Z,12.97
2019-05-22T09:59:33.623Z,13.09
2019-05-22T10:00:33.613Z,13.12
2019-05-22T10:01:33.600Z,13.13
2019-05-22T10:02:33.582Z,13.03
2019-05-22T10:03:33.571Z,13.08
2019-05-22T10:04:33.554Z,13.09
2019-05-22T10:05:33.581Z,12.95
2019-05-22T10:06:33.569Z,13.05
2019-05-22T10:07:33.547Z,12.98
2019-05-22T10:08:33.509Z,13.05
2019-05-22T10:09:33.510Z,13.00
2019-05-22T10:10:33.519Z,13.05
2019-05-22T10:11:33.477Z,13.12
2019-05-22T10:12:33.475Z,13.16
2019-05-22T10:13:33.681Z,13.19
2019-05-22T10:14:33.459Z,13.19
2019-05-22T10:15:33.438Z,13.15
2019-05-22T10:16:33.428Z,13.11
2019-05-22T10:17:33.418Z,13.16
2019-05-22T10:18:33.409Z,13.20
2019-05-22T10:19:33.405Z,13.27
2019-05-22T10:20:33.401Z,13.19
2019-05-22T10:21:33.374Z,13.22
2019-05-22T10:22:33.359Z,13.23
2019-05-22T10:23:33.367Z,13.30
2019-05-22T10:24:33.346Z,13.33
2019-05-22T10:25:33.325Z,13.30
2019-05-22T10:26:33.320Z,13.23
2019-05-22T10:27:33.313Z,13.23
2019-05-22T10:28:33.317Z,13.19
2019-05-22T10:29:33.292Z,13.35
2019-05-22T10:30:33.291Z,13.39
2019-05-22T10:31:33.266Z,13.38
2019-05-22T10:32:33.259Z,13.49
2019-05-22T10:33:33.265Z,13.50
2019-05-22T10:34:33.236Z,13.46
2019-05-22T10:35:33.254Z,13.50
2019-05-22T10:36:33.214Z,13.39
2019-05-22T10:37:33.203Z,13.35
2019-05-22T10:38:33.188Z,13.31
2019-05-22T10:39:33.176Z,13.27
2019-05-22T10:40:33.169Z,13.28
2019-05-22T10:41:33.176Z,13.33
2019-05-22T10:42:33.152Z,13.31
2019-05-22T10:43:33.149Z,13.31
2019-05-22T10:44:33.124Z,13.20
2019-05-22T10:45:33.116Z,13.30
2019-05-22T10:46:33.100Z,13.27
2019-05-22T10:47:33.106Z,13.25
2019-05-22T10:48:33.083Z,13.22
2019-05-22T10:49:33.073Z,13.23
2019-05-22T10:50:33.073Z,13.20
2019-05-22T10:51:33.057Z,13.15
2019-05-22T10:52:33.036Z,13.16
2019-05-22T10:53:34.418Z,13.18
2019-05-22T10:54:33.018Z,13.19
2019-05-22T10:55:33.019Z,13.22
2019-05-22T10:56:33.026Z,13.18
2019-05-22T10:57:32.998Z,13.22
2019-05-22T10:58:32.975Z,13.13
2019-05-22T10:59:32.967Z,13.19
2019-05-22T11:00:32.956Z,13.04
2019-05-22T11:01:32.937Z,13.09
2019-05-22T11:02:32.971Z,13.08
2019-05-22T11:03:32.921Z,13.00
2019-05-22T11:04:32.914Z,13.13
2019-05-22T11:05:32.906Z,13.13
2019-05-22T11:06:32.890Z,13.12
2019-05-22T11:07:32.878Z,13.16
2019-05-22T11:08:34.433Z,13.23
2019-05-22T11:09:32.857Z,13.22
2019-05-22T11:10:32.848Z,13.22
2019-05-22T11:11:32.843Z,13.22
2019-05-22T11:12:32.824Z,13.37
2019-05-22T11:13:34.449Z,13.27
2019-05-22T11:14:32.800Z,13.31
2019-05-22T11:15:32.790Z,13.25
2019-05-22T11:16:32.995Z,13.33
2019-05-22T11:17:32.765Z,13.30
2019-05-22T11:18:32.762Z,13.23
2019-05-22T11:19:32.763Z,13.28
2019-05-22T11:20:32.739Z,13.27
2019-05-22T11:21:32.733Z,13.35
2019-05-22T11:22:34.934Z,13.33
2019-05-22T11:23:48.529Z,13.28
2019-05-22T11:24:33.709Z,13.25
2019-05-22T11:25:32.685Z,13.22
2019-05-22T11:26:32.681Z,13.20
2019-05-22T11:27:32.658Z,13.15
2019-05-22T11:28:32.656Z,13.19
2019-05-22T11:29:32.641Z,13.15
2019-05-22T11:30:32.637Z,13.15
2019-05-22T11:31:32.620Z,13.12
2019-05-22T11:32:32.616Z,13.08
2019-05-22T11:33:34.292Z,13.16
2019-05-22T11:34:32.599Z,13.13
2019-05-22T11:35:32.573Z,13.11
2019-05-22T11:36:32.567Z,13.08
2019-05-22T11:37:32.586Z,13.15
2019-05-22T11:38:32.540Z,13.13
2019-05-22T11:39:39.583Z,13.08
2019-05-22T11:40:33.555Z,13.13
2019-05-22T11:41:32.509Z,13.12
2019-05-22T11:42:32.519Z,13.13
2019-05-22T11:43:32.485Z,13.15
2019-05-22T11:44:32.474Z,13.13
2019-05-22T11:45:32.466Z,13.13
2019-05-22T11:46:32.458Z,13.05
2019-05-22T11:47:32.438Z,13.08
2019-05-22T11:48:32.435Z,13.03
2019-05-22T11:49:32.420Z,13.18
2019-05-22T11:50:32.410Z,13.19
2019-05-22T11:51:32.423Z,13.15
2019-05-22T11:52:32.390Z,13.13
2019-05-22T11:53:32.379Z,13.11
2019-05-22T11:54:32.364Z,13.11
2019-05-22T11:55:43.811Z,13.13
2019-05-22T11:56:33.344Z,13.12
2019-05-22T11:57:32.338Z,13.08
2019-05-22T11:58:32.335Z,13.03
2019-05-22T11:59:32.309Z,13.05
2019-05-22T12:00:32.299Z,13.11
2019-05-22T12:01:32.298Z,13.18
2019-05-22T12:02:32.295Z,13.05
2019-05-22T12:03:32.261Z,13.04
2019-05-22T12:04:46.474Z,13.00
2019-05-22T12:05:33.242Z,13.03
2019-05-22T12:06:32.241Z,13.03
2019-05-22T12:07:32.227Z,13.01
2019-05-22T12:08:32.205Z,13.00
2019-05-22T12:09:32.205Z,13.08
2019-05-22T12:10:32.188Z,12.95
2019-05-22T12:11:32.185Z,12.98
2019-05-22T12:12:35.186Z,12.86
2019-05-22T12:13:32.161Z,12.95
2019-05-22T12:14:32.144Z,13.01
2019-05-22T12:15:32.133Z,12.95
2019-05-22T12:16:32.117Z,12.97
2019-05-22T12:17:37.884Z,13.01
2019-05-22T12:18:33.106Z,12.98
2019-05-22T12:19:32.089Z,12.98
2019-05-22T12:20:32.085Z,12.98
2019-05-22T12:21:32.076Z,13.00
2019-05-22T12:22:32.059Z,12.95
2019-05-22T12:23:32.047Z,13.05
2019-05-22T12:24:36.879Z,13.01
2019-05-22T12:25:33.043Z,12.91
2019-05-22T12:26:32.009Z,12.85
2019-05-22T12:27:32.001Z,12.91
2019-05-22T12:28:31.995Z,12.95
2019-05-22T12:29:31.982Z,12.82
2019-05-22T12:30:31.967Z,12.82
2019-05-22T12:31:31.958Z,12.91
2019-05-22T12:32:31.948Z,12.83
2019-05-22T12:33:31.928Z,12.80
2019-05-22T12:34:31.949Z,12.86
2019-05-22T12:35:31.920Z,12.78
2019-05-22T12:36:31.916Z,12.90
2019-05-22T12:37:31.898Z,12.90
2019-05-22T12:38:31.875Z,12.87
2019-05-22T12:39:31.868Z,12.87
2019-05-22T12:40:31.856Z,12.90
2019-05-22T12:41:31.890Z,12.85
2019-05-22T12:42:31.829Z,12.86
2019-05-22T12:43:31.823Z,12.83
2019-05-22T12:44:31.819Z,12.87
2019-05-22T12:45:31.796Z,12.87
2019-05-22T12:46:31.790Z,12.86
2019-05-22T12:47:31.793Z,12.85
2019-05-22T12:48:31.771Z,12.93
2019-05-22T12:49:31.751Z,12.93
2019-05-22T12:50:31.757Z,12.87
2019-05-22T12:51:31.738Z,13.01
2019-05-22T12:52:31.727Z,13.04